Time;durP1;ratioP1;P1;durP2;ratioP2;P2;SDS_P1;SDS_P2;PMS_P1;PMS_P2;Temp;Humidity;BMP_temperature;BMP_pressure;BME280_temperature;BME280_humidity;BME280_pressure;Samples;Min_cycle;Max_cycle;Signal;HPM_P1;HPM_P2
2021/12/21 00:00:44;;;;;;;12.20;7.97;;;5.10;55.00;;;;;;5092897;28;20428;-55
2021/12/21 00:03:09;;;;;;;13.07;8.60;;;5.00;54.40;;;;;;5091572;28;20476;-55
2021/12/21 00:05:36;;;;;;;9.90;7.63;;;5.00;54.30;;;;;;5092649;28;20495;-55
2021/12/21 00:08:04;;;;;;;12.87;9.60;;;5.00;54.40;;;;;;5092949;28;21051;-55
2021/12/21 00:10:32;;;;;;;16.13;9.10;;;4.90;54.40;;;;;;5092400;28;20422;-55
2021/12/21 00:15:37;;;;;;;13.40;8.57;;;4.90;54.30;;;;;;5092135;28;20471;-55
2021/12/21 00:23:36;;;;;;;16.30;9.13;;;4.90;54.10;;;;;;5092710;28;20539;-52
2021/12/21 00:26:08;;;;;;;11.43;7.40;;;4.80;53.90;;;;;;5091938;28;21083;-52
2021/12/21 00:28:48;;;;;;;13.63;8.60;;;4.80;54.00;;;;;;5090667;28;20504;-54
2021/12/21 00:31:14;;;;;;;13.90;7.90;;;4.80;54.00;;;;;;5107893;28;20437;-55
2021/12/21 00:33:41;;;;;;;10.73;8.70;;;4.80;53.90;;;;;;5092771;28;20791;-55
2021/12/21 00:36:08;;;;;;;12.13;8.70;;;4.70;53.80;;;;;;5092035;28;20199;-55
2021/12/21 00:38:34;;;;;;;9.77;7.67;;;4.70;53.80;;;;;;5092272;28;20932;-55
2021/12/21 00:41:00;;;;;;;13.20;8.53;;;4.70;53.80;;;;;;5091975;28;20440;-54
2021/12/21 00:43:26;;;;;;;11.93;8.43;;;4.70;53.80;;;;;;5092471;28;20488;-55
2021/12/21 00:45:52;;;;;;;11.13;7.40;;;4.60;53.80;;;;;;5091815;28;20493;-56
2021/12/21 00:48:18;;;;;;;13.13;7.30;;;4.60;53.60;;;;;;5092041;28;20913;-54
2021/12/21 00:50:44;;;;;;;12.27;8.00;;;4.60;53.70;;;;;;5091343;28;20287;-55
2021/12/21 00:53:10;;;;;;;12.73;8.77;;;4.60;53.90;;;;;;5092408;28;20199;-55
2021/12/21 00:55:36;;;;;;;17.07;9.00;;;4.60;54.00;;;;;;5089873;28;20935;-55
2021/12/21 00:58:01;;;;;;;10.03;7.30;;;4.50;54.20;;;;;;5091181;28;21236;-52
2021/12/21 01:00:27;;;;;;;14.60;9.40;;;4.50;54.40;;;;;;5091516;28;20186;-54
2021/12/21 01:02:56;;;;;;;12.00;7.80;;;4.50;54.30;;;;;;5091926;28;20203;-54
2021/12/21 01:05:38;;;;;;;10.50;7.30;;;4.50;54.30;;;;;;5091454;28;20437;-54
2021/12/21 01:08:05;;;;;;;11.30;7.40;;;4.50;54.30;;;;;;5091633;28;20430;-54
2021/12/21 01:13:31;;;;;;;14.57;7.83;;;4.50;54.10;;;;;;5091696;28;20433;-52
2021/12/21 01:18:34;;;;;;;9.77;6.53;;;4.50;54.00;;;;;;5083615;28;20794;-51
2021/12/21 01:23:58;;;;;;;10.87;6.60;;;4.50;54.00;;;;;;5090155;28;21435;-55
2021/12/21 01:31:46;;;;;;;11.57;8.23;;;4.40;54.40;;;;;;5090740;28;20642;-55
2021/12/21 01:37:24;;;;;;;10.90;7.70;;;4.40;54.30;;;;;;5090459;28;20850;-52
2021/12/21 01:42:26;;;;;;;10.23;7.10;;;4.40;54.20;;;;;;5091543;28;20417;-52
2021/12/21 01:50:20;;;;;;;14.10;7.57;;;4.40;54.20;;;;;;5088921;28;20428;-52
2021/12/21 01:52:46;;;;;;;14.73;7.17;;;4.40;54.30;;;;;;5091396;28;20425;-55
2021/12/21 01:55:11;;;;;;;11.37;7.37;;;4.40;54.30;;;;;;5090966;28;20246;-55
2021/12/21 01:57:37;;;;;;;10.27;7.10;;;4.40;54.40;;;;;;5090841;28;20214;-54
2021/12/21 02:00:06;;;;;;;11.33;6.97;;;4.40;54.20;;;;;;5090894;28;20654;-54
2021/12/21 02:02:32;;;;;;;10.17;7.30;;;4.40;54.10;;;;;;5090859;28;20211;-54
2021/12/21 02:04:58;;;;;;;11.57;6.73;;;4.40;54.10;;;;;;5090656;28;20638;-51
2021/12/21 02:07:23;;;;;;;9.77;6.90;;;4.40;54.20;;;;;;5090779;28;20643;-52
2021/12/21 02:09:49;;;;;;;10.37;6.70;;;4.30;54.40;;;;;;5090279;28;20194;-53
2021/12/21 02:12:18;;;;;;;11.20;7.30;;;4.30;54.50;;;;;;5091310;28;20669;-53
2021/12/21 02:14:55;;;;;;;11.80;7.23;;;4.30;54.60;;;;;;5090691;28;20195;-54
2021/12/21 02:20:11;;;;;;;15.80;6.77;;;4.50;54.30;;;;;;5085998;28;20468;-51
2021/12/21 02:22:43;;;;;;;10.77;7.50;;;4.50;54.30;;;;;;5090873;28;20437;-51
2021/12/21 02:30:44;;;;;;;10.80;7.00;;;4.40;54.40;;;;;;5090478;28;20425;-54
2021/12/21 02:33:12;;;;;;;11.20;7.07;;;4.20;54.50;;;;;;5090912;28;20441;-54
2021/12/21 02:35:38;;;;;;;14.17;7.57;;;4.20;54.60;;;;;;5088864;28;20784;-54
2021/12/21 02:38:04;;;;;;;10.70;6.83;;;4.20;54.50;;;;;;5090404;28;20517;-52
2021/12/21 02:40:30;;;;;;;10.90;6.83;;;4.30;54.40;;;;;;5090161;28;20848;-52
2021/12/21 02:42:56;;;;;;;11.17;7.87;;;4.30;54.30;;;;;;5087808;28;20477;-55
2021/12/21 02:45:21;;;;;;;14.40;7.90;;;4.30;54.30;;;;;;5090084;28;20429;-52
2021/12/21 02:47:47;;;;;;;13.20;7.17;;;4.20;54.00;;;;;;5090579;28;20544;-55
2021/12/21 02:50:12;;;;;;;8.53;7.07;;;4.10;53.90;;;;;;5090218;28;20198;-54
2021/12/21 02:52:38;;;;;;;9.23;6.77;;;4.10;54.20;;;;;;5090790;28;20280;-55
2021/12/21 02:55:05;;;;;;;9.80;6.63;;;4.10;54.30;;;;;;5090012;28;20213;-54
2021/12/21 02:57:30;;;;;;;13.03;7.47;;;4.10;54.30;;;;;;5090484;28;20270;-54
2021/12/21 02:59:56;;;;;;;9.27;6.90;;;4.10;54.40;;;;;;5089922;28;20517;-51
2021/12/21 03:02:22;;;;;;;10.70;6.90;;;4.10;54.30;;;;;;5090596;28;20192;-54
2021/12/21 03:04:50;;;;;;;13.30;6.33;;;4.10;54.30;;;;;;5090041;28;20699;-53
2021/12/21 03:07:47;;;;;;;8.13;6.20;;;4.10;54.30;;;;;;5089862;28;21178;-53
2021/12/21 03:10:10;;;;;;;9.80;6.50;;;4.10;54.30;;;;;;5088099;28;20799;-55
2021/12/21 03:15:20;;;;;;;11.20;6.80;;;4.10;54.60;;;;;;5089594;28;20545;-54
2021/12/21 03:17:46;;;;;;;8.77;6.57;;;4.10;54.50;;;;;;5083646;28;20521;-53
2021/12/21 03:20:12;;;;;;;12.17;7.33;;;4.10;54.50;;;;;;5088227;28;20996;-55
2021/12/21 03:22:37;;;;;;;18.00;6.70;;;4.10;54.30;;;;;;5094177;28;20673;-53
2021/12/21 03:25:04;;;;;;;11.13;7.00;;;4.00;54.20;;;;;;5093172;28;20187;-53
2021/12/21 03:27:30;;;;;;;9.93;6.60;;;4.00;55.10;;;;;;5093575;28;20282;-54
2021/12/21 03:29:56;;;;;;;12.20;7.47;;;4.00;54.50;;;;;;5093515;28;20521;-53
2021/12/21 03:32:21;;;;;;;9.30;6.03;;;4.10;54.40;;;;;;5093965;28;20483;-51
2021/12/21 03:34:47;;;;;;;12.60;7.50;;;4.00;54.20;;;;;;5092528;28;20606;-54
2021/12/21 03:37:14;;;;;;;11.30;7.00;;;4.10;54.10;;;;;;5092783;28;20612;-55
2021/12/21 03:39:45;;;;;;;10.57;6.13;;;4.00;53.90;;;;;;5093446;28;20191;-52
2021/12/21 03:42:13;;;;;;;8.93;6.63;;;4.00;53.70;;;;;;5093996;28;20430;-53
2021/12/21 03:44:39;;;;;;;11.57;6.77;;;3.90;53.50;;;;;;5093360;28;20553;-53
2021/12/21 03:47:08;;;;;;;10.33;6.50;;;4.00;53.70;;;;;;5093059;28;20912;-53
2021/12/21 03:52:04;;;;;;;13.43;6.60;;;4.00;53.60;;;;;;5092625;28;20430;-53
2021/12/21 03:54:30;;;;;;;10.83;6.40;;;3.90;53.70;;;;;;5093612;28;20795;-52
2021/12/21 03:56:55;;;;;;;14.90;7.47;;;3.90;54.40;;;;;;5092465;28;20422;-54
2021/12/21 03:59:22;;;;;;;11.90;8.13;;;4.00;53.80;;;;;;5093534;28;20429;-55
2021/12/21 04:01:49;;;;;;;10.00;6.50;;;4.00;53.90;;;;;;5090862;28;20278;-55
2021/12/21 04:04:19;;;;;;;10.87;7.20;;;3.90;53.90;;;;;;5093389;28;20563;-54
2021/12/21 04:06:45;;;;;;;11.57;6.73;;;3.80;54.10;;;;;;5092105;28;20829;-54
2021/12/21 04:09:11;;;;;;;9.80;7.07;;;3.70;54.60;;;;;;5093479;28;20441;-51
2021/12/21 04:11:36;;;;;;;12.87;6.53;;;3.70;54.90;;;;;;5092466;28;20468;-52
2021/12/21 04:14:03;;;;;;;8.20;6.63;;;3.60;55.40;;;;;;5093108;28;20237;-52
2021/12/21 04:16:29;;;;;;;9.27;7.60;;;3.70;54.70;;;;;;5091992;28;20195;-55
2021/12/21 04:18:55;;;;;;;11.83;6.37;;;3.70;54.50;;;;;;5084175;28;20473;-54
2021/12/21 04:21:20;;;;;;;11.10;7.00;;;3.70;54.30;;;;;;5092322;28;20428;-53
2021/12/21 04:23:46;;;;;;;8.40;6.43;;;3.70;54.30;;;;;;5092768;28;20485;-51
2021/12/21 04:26:14;;;;;;;8.93;6.43;;;3.60;54.40;;;;;;5091986;28;20215;-51
2021/12/21 04:28:39;;;;;;;9.43;7.33;;;3.70;54.60;;;;;;5090946;28;20198;-51
2021/12/21 04:31:05;;;;;;;12.83;7.00;;;3.70;54.60;;;;;;5092200;28;20852;-51
2021/12/21 04:33:33;;;;;;;12.50;7.27;;;3.60;54.60;;;;;;5091611;28;20206;-52
2021/12/21 04:36:00;;;;;;;8.93;7.07;;;3.60;54.90;;;;;;5092030;28;20425;-53
2021/12/21 04:38:30;;;;;;;14.67;7.53;;;3.70;54.80;;;;;;5092144;28;20429;-54
2021/12/21 04:41:44;;;;;;;10.40;6.40;;;3.70;54.60;;;;;;5092002;28;20447;-52
2021/12/21 04:43:44;;;;;;;9.77;7.10;;;3.60;54.40;;;;;;5084843;28;20868;-55
2021/12/21 04:46:11;;;;;;;12.50;6.60;;;3.70;54.40;;;;;;5091712;28;20432;-53
2021/12/21 04:48:38;;;;;;;12.20;6.03;;;3.70;54.40;;;;;;5092006;28;20199;-51
2021/12/21 04:51:03;;;;;;;16.83;7.53;;;3.70;54.30;;;;;;5091712;28;20608;-55
2021/12/21 04:53:29;;;;;;;12.63;7.33;;;3.60;54.10;;;;;;5092211;28;21118;-54
2021/12/21 04:55:55;;;;;;;11.03;7.07;;;3.60;54.00;;;;;;5090067;28;20188;-52
2021/12/21 04:58:20;;;;;;;12.23;6.80;;;3.70;54.10;;;;;;5091721;28;20199;-51
2021/12/21 05:00:47;;;;;;;12.50;7.13;;;3.60;54.00;;;;;;5091690;28;20199;-52
2021/12/21 05:03:13;;;;;;;11.10;7.40;;;3.30;54.30;;;;;;5092089;28;20219;-52
2021/12/21 05:05:39;;;;;;;13.97;7.40;;;3.10;55.10;;;;;;5091761;28;20954;-53
2021/12/21 05:08:08;;;;;;;10.50;6.77;;;2.90;55.20;;;;;;5091857;28;20451;-52
2021/12/21 05:10:47;;;;;;;13.33;7.27;;;2.90;55.60;;;;;;5091422;28;20433;-54
2021/12/21 05:13:16;;;;;;;16.03;7.60;;;3.00;55.70;;;;;;5092092;28;20433;-54
2021/12/21 05:15:43;;;;;;;10.10;6.40;;;3.10;55.50;;;;;;5091556;28;20422;-52
2021/12/21 05:18:09;;;;;;;11.10;7.30;;;3.20;55.20;;;;;;5084153;28;20509;-54
2021/12/21 05:20:35;;;;;;;11.03;6.57;;;3.10;55.00;;;;;;5091208;28;20480;-53
2021/12/21 05:23:01;;;;;;;9.50;7.00;;;3.20;55.20;;;;;;5090105;28;20469;-52
2021/12/21 05:25:27;;;;;;;8.57;6.40;;;3.20;55.00;;;;;;5091265;28;20855;-54
2021/12/21 05:27:52;;;;;;;12.00;7.30;;;3.20;54.50;;;;;;5091223;28;20190;-53
2021/12/21 05:30:18;;;;;;;11.10;6.50;;;3.20;54.50;;;;;;5091020;28;20191;-54
2021/12/21 05:32:43;;;;;;;11.53;7.27;;;3.20;54.40;;;;;;5091644;28;20207;-53
2021/12/21 05:35:09;;;;;;;13.20;6.53;;;3.20;54.40;;;;;;5091494;28;20191;-52
2021/12/21 05:37:38;;;;;;;9.20;7.03;;;3.20;54.30;;;;;;5091035;28;20207;-54
2021/12/21 05:40:15;;;;;;;12.10;6.97;;;3.20;54.40;;;;;;5090734;28;20433;-54
2021/12/21 05:42:41;;;;;;;13.67;6.57;;;3.20;54.10;;;;;;5091409;28;20441;-53
2021/12/21 05:45:08;;;;;;;7.50;6.30;;;3.20;53.80;;;;;;5090709;28;20441;-52
2021/12/21 05:47:34;;;;;;;11.70;6.40;;;3.20;53.80;;;;;;5090983;28;20567;-54
2021/12/21 05:50:00;;;;;;;11.57;5.73;;;3.20;53.70;;;;;;5088920;28;20520;-53
2021/12/21 05:52:26;;;;;;;11.27;7.10;;;3.20;53.70;;;;;;5091359;28;20192;-54
2021/12/21 05:54:51;;;;;;;11.30;7.57;;;3.20;53.60;;;;;;5090873;28;20433;-53
2021/12/21 05:57:17;;;;;;;12.80;7.70;;;3.20;53.60;;;;;;5090866;28;20254;-55
2021/12/21 05:59:43;;;;;;;10.93;6.90;;;3.20;53.70;;;;;;5090553;28;20191;-54
2021/12/21 06:02:09;;;;;;;13.53;7.13;;;3.10;53.50;;;;;;5091309;28;20417;-52
2021/12/21 06:04:34;;;;;;;11.20;7.10;;;3.10;53.50;;;;;;5091238;28;20222;-54
2021/12/21 06:07:00;;;;;;;15.20;7.23;;;3.20;53.50;;;;;;5090289;28;20219;-52
2021/12/21 06:09:27;;;;;;;11.10;8.00;;;3.20;54.10;;;;;;5090802;28;20449;-54
2021/12/21 06:12:04;;;;;;;11.37;7.83;;;3.20;53.40;;;;;;5090394;28;20274;-54
2021/12/21 06:22:51;;;;;;;10.70;6.60;;;3.10;54.20;;;;;;5090997;28;20459;-55
2021/12/21 06:27:46;;;;;;;9.80;6.70;;;3.10;54.20;;;;;;5090388;28;20421;-55
2021/12/21 06:30:13;;;;;;;10.37;7.00;;;3.10;54.30;;;;;;5090467;28;20477;-54
2021/12/21 06:32:39;;;;;;;8.97;6.77;;;3.20;54.20;;;;;;5091123;28;20438;-53
2021/12/21 06:35:06;;;;;;;9.83;6.60;;;3.20;54.00;;;;;;5090220;28;20790;-53
2021/12/21 06:37:32;;;;;;;13.00;7.80;;;3.10;53.80;;;;;;5090211;28;20187;-53
2021/12/21 06:39:57;;;;;;;14.00;7.80;;;3.00;53.80;;;;;;5090314;28;20440;-54
2021/12/21 06:42:24;;;;;;;8.83;7.00;;;3.00;54.10;;;;;;5089161;28;20272;-51
2021/12/21 06:44:54;;;;;;;13.17;7.43;;;3.00;54.10;;;;;;5089985;28;20682;-52
2021/12/21 06:52:50;;;;;;;13.97;7.60;;;3.00;53.70;;;;;;5090675;28;20790;-52
2021/12/21 06:55:15;;;;;;;19.93;7.87;;;3.00;53.60;;;;;;5090023;28;20421;-55
2021/12/21 06:57:43;;;;;;;13.40;7.73;;;3.10;53.80;;;;;;5094411;28;20196;-52
2021/12/21 07:00:14;;;;;;;14.53;7.40;;;2.90;53.70;;;;;;5094102;28;20214;-53
2021/12/21 07:02:40;;;;;;;13.10;7.27;;;2.90;54.00;;;;;;5094710;28;21051;-53
2021/12/21 07:05:07;;;;;;;10.83;7.40;;;2.90;54.00;;;;;;5093562;28;20481;-53
2021/12/21 07:07:33;;;;;;;11.10;7.00;;;2.90;54.30;;;;;;5094219;28;20433;-54
2021/12/21 07:10:01;;;;;;;9.83;6.57;;;2.90;54.50;;;;;;5091969;28;20440;-54
2021/12/21 07:20:15;;;;;;;10.23;6.73;;;3.00;54.20;;;;;;5092148;28;20986;-54
2021/12/21 07:22:40;;;;;;;13.67;7.93;;;2.90;54.10;;;;;;5094246;28;20520;-54
2021/12/21 07:25:06;;;;;;;15.20;8.73;;;3.00;54.30;;;;;;5093309;28;20895;-54
2021/12/21 07:27:32;;;;;;;11.30;6.80;;;3.00;54.20;;;;;;5092439;28;20264;-54
2021/12/21 07:29:58;;;;;;;13.20;7.67;;;3.00;54.10;;;;;;5093403;28;20512;-54
2021/12/21 07:32:23;;;;;;;11.10;7.50;;;3.20;54.50;;;;;;5094024;28;20197;-52
2021/12/21 07:34:49;;;;;;;10.97;6.63;;;3.80;54.30;;;;;;5091843;28;20249;-55
2021/12/21 07:37:15;;;;;;;11.40;7.10;;;4.60;52.80;;;;;;5093303;28;20690;-54
2021/12/21 07:39:40;;;;;;;10.10;6.90;;;5.20;50.30;;;;;;5093507;28;20537;-55
2021/12/21 07:42:06;;;;;;;11.20;7.40;;;5.90;49.30;;;;;;5093897;28;20482;-55
2021/12/21 07:44:32;;;;;;;10.47;7.27;;;6.90;47.70;;;;;;5093435;28;20230;-55
2021/12/21 07:46:58;;;;;;;10.50;7.03;;;7.80;45.40;;;;;;5092589;28;20421;-54
2021/12/21 07:49:24;;;;;;;10.33;6.40;;;8.70;43.60;;;;;;5093568;28;20202;-55
2021/12/21 07:51:49;;;;;;;9.90;6.73;;;9.30;41.70;;;;;;5092955;28;20230;-54
2021/12/21 07:54:17;;;;;;;12.00;7.60;;;10.00;39.40;;;;;;5093476;28;20195;-55
2021/12/21 07:56:43;;;;;;;10.23;7.43;;;10.30;38.20;;;;;;5092599;28;20206;-54
2021/12/21 07:59:11;;;;;;;13.97;8.00;;;10.50;37.80;;;;;;5093325;28;20413;-55
2021/12/21 08:01:39;;;;;;;9.97;8.00;;;10.20;37.60;;;;;;5091029;28;20429;-55
2021/12/21 08:04:09;;;;;;;18.43;10.07;;;9.70;39.00;;;;;;5093340;28;20586;-54
2021/12/21 08:06:35;;;;;;;11.07;8.40;;;8.90;40.20;;;;;;5092103;28;20528;-53
2021/12/21 08:09:03;;;;;;;15.50;9.33;;;8.10;41.50;;;;;;5092927;28;20988;-55
2021/12/21 08:14:01;;;;;;;11.97;9.43;;;6.80;44.10;;;;;;5093156;28;20482;-53
2021/12/21 08:16:27;;;;;;;20.00;12.10;;;6.40;45.40;;;;;;5091934;28;20471;-55
2021/12/21 08:18:53;;;;;;;15.83;11.53;;;6.00;46.30;;;;;;5084766;28;20847;-55
2021/12/21 08:21:19;;;;;;;17.00;9.93;;;5.70;47.10;;;;;;5092246;28;20236;-54
2021/12/21 08:23:45;;;;;;;14.03;8.07;;;5.50;47.90;;;;;;5092966;28;20250;-55
2021/12/21 08:26:12;;;;;;;11.73;8.30;;;5.30;48.70;;;;;;5091778;28;20520;-54
2021/12/21 08:28:38;;;;;;;10.47;7.43;;;5.20;49.50;;;;;;5091439;28;20417;-53
2021/12/21 08:31:04;;;;;;;14.83;10.47;;;5.00;50.40;;;;;;5092218;28;20424;-54
2021/12/21 08:33:30;;;;;;;11.73;8.80;;;4.80;50.90;;;;;;5092898;28;20188;-55
2021/12/21 08:35:56;;;;;;;11.27;8.43;;;4.70;51.60;;;;;;5091506;28;20436;-55
2021/12/21 08:38:21;;;;;;;15.20;8.47;;;4.60;52.10;;;;;;5092736;28;20192;-55
2021/12/21 08:40:49;;;;;;;12.70;8.03;;;4.60;52.60;;;;;;5091930;28;20187;-55
2021/12/21 08:43:23;;;;;;;14.03;8.03;;;4.30;52.70;;;;;;5092615;28;20298;-54
2021/12/21 08:45:50;;;;;;;12.37;8.03;;;4.30;53.70;;;;;;5091913;28;20578;-55
2021/12/21 08:48:16;;;;;;;27.80;12.37;;;4.40;54.00;;;;;;5092242;28;20440;-55
2021/12/21 08:50:43;;;;;;;20.97;12.50;;;4.40;53.70;;;;;;5091960;28;20445;-55
2021/12/21 08:53:09;;;;;;;20.63;13.30;;;4.50;53.40;;;;;;5092697;28;20191;-55
2021/12/21 08:55:35;;;;;;;20.23;13.13;;;4.50;53.40;;;;;;5090170;28;20445;-54
2021/12/21 08:58:01;;;;;;;17.53;11.57;;;4.60;53.40;;;;;;5091932;28;20197;-55
2021/12/21 09:00:26;;;;;;;23.13;11.70;;;4.60;53.40;;;;;;5091661;28;20913;-55
2021/12/21 09:02:53;;;;;;;17.37;11.17;;;4.50;53.20;;;;;;5092336;28;20187;-55
2021/12/21 09:05:21;;;;;;;16.30;10.17;;;4.50;53.80;;;;;;5091387;28;20673;-55
2021/12/21 09:07:49;;;;;;;15.73;9.53;;;4.60;54.00;;;;;;5091773;28;20457;-54
2021/12/21 09:10:17;;;;;;;14.30;9.10;;;4.80;54.20;;;;;;5091677;28;20417;-55
2021/12/21 09:12:46;;;;;;;19.70;11.27;;;4.70;54.90;;;;;;5091942;28;20464;-55
2021/12/21 09:15:13;;;;;;;13.97;9.87;;;4.80;55.40;;;;;;5091386;28;20425;-54
2021/12/21 09:17:40;;;;;;;17.00;11.10;;;5.00;55.20;;;;;;5086366;28;20427;-55
2021/12/21 09:20:07;;;;;;;15.60;11.13;;;5.10;54.90;;;;;;5087097;28;20490;-55
2021/12/21 09:22:33;;;;;;;24.77;9.73;;;5.20;54.70;;;;;;5090106;28;20461;-54
2021/12/21 09:24:59;;;;;;;12.40;8.93;;;5.40;54.90;;;;;;5091099;28;20578;-55
2021/12/21 09:27:25;;;;;;;13.57;8.50;;;5.40;55.20;;;;;;5091219;28;20199;-55
2021/12/21 09:29:51;;;;;;;10.70;8.10;;;5.40;55.60;;;;;;5090733;28;21001;-55
2021/12/21 09:32:18;;;;;;;13.27;8.00;;;5.40;55.50;;;;;;5091760;28;20429;-55
2021/12/21 09:34:45;;;;;;;9.80;7.70;;;5.40;55.60;;;;;;5090989;28;20204;-55
2021/12/21 09:37:16;;;;;;;13.10;7.53;;;5.60;56.10;;;;;;5091275;28;20486;-55
2021/12/21 09:39:49;;;;;;;15.37;8.20;;;5.80;56.10;;;;;;5091000;28;20463;-57
2021/12/21 09:42:20;;;;;;;10.90;7.07;;;6.10;56.10;;;;;;5091477;28;20425;-55
2021/12/21 09:44:46;;;;;;;9.60;7.17;;;6.50;54.80;;;;;;5090954;28;20844;-57
2021/12/21 09:47:14;;;;;;;9.03;6.90;;;6.80;54.50;;;;;;5090992;28;20429;-55
2021/12/21 09:49:41;;;;;;;12.57;7.40;;;7.30;53.10;;;;;;5089528;28;20471;-55
2021/12/21 09:52:08;;;;;;;9.63;7.80;;;7.70;51.40;;;;;;5091138;28;20945;-55
2021/12/21 09:54:35;;;;;;;12.00;7.53;;;8.10;50.50;;;;;;5091289;28;20532;-55
2021/12/21 09:57:01;;;;;;;8.47;6.63;;;8.50;49.70;;;;;;5090324;28;20451;-56
2021/12/21 09:59:27;;;;;;;14.30;7.33;;;8.70;48.60;;;;;;5091217;28;20913;-55
2021/12/21 10:01:55;;;;;;;14.50;8.17;;;9.00;48.50;;;;;;5090747;28;20425;-55
2021/12/21 10:04:21;;;;;;;11.70;7.70;;;9.20;47.60;;;;;;5091113;28;20512;-56
2021/12/21 10:06:50;;;;;;;10.87;7.20;;;9.40;47.20;;;;;;5090197;28;20874;-55
2021/12/21 10:09:19;;;;;;;7.03;5.83;;;9.60;46.70;;;;;;5091079;28;20187;-55
2021/12/21 10:11:50;;;;;;;9.33;6.40;;;9.70;45.90;;;;;;5090402;28;20453;-54
2021/12/21 10:14:18;;;;;;;10.00;6.90;;;9.70;45.60;;;;;;5091042;28;20931;-55
2021/12/21 10:16:46;;;;;;;8.90;6.97;;;9.70;45.80;;;;;;5088808;28;20418;-54
2021/12/21 10:19:24;;;;;;;8.50;6.00;;;9.80;45.80;;;;;;5083306;28;21212;-55
2021/12/21 10:21:50;;;;;;;10.00;6.40;;;10.00;44.80;;;;;;5090389;28;20417;-55
2021/12/21 10:24:27;;;;;;;9.50;6.63;;;10.10;44.50;;;;;;5090886;28;20912;-55
2021/12/21 10:27:05;;;;;;;6.17;5.57;;;10.10;44.50;;;;;;5090084;28;20449;-52
2021/12/21 10:29:45;;;;;;;10.00;5.60;;;10.20;44.50;;;;;;5090617;28;20512;-55
2021/12/21 10:32:22;;;;;;;10.03;7.10;;;10.30;44.10;;;;;;5094378;28;20464;-55
2021/12/21 10:34:56;;;;;;;10.67;5.90;;;10.50;44.50;;;;;;5093230;28;20433;-55
2021/12/21 10:37:27;;;;;;;6.20;5.43;;;10.60;44.10;;;;;;5094322;28;20449;-55
2021/12/21 10:40:08;;;;;;;7.13;5.60;;;10.70;43.60;;;;;;5094399;28;20516;-54
2021/12/21 10:42:45;;;;;;;9.70;6.70;;;10.80;43.60;;;;;;5093175;28;20940;-55
2021/12/21 10:45:11;;;;;;;10.50;7.00;;;10.90;43.70;;;;;;5094450;28;20511;-55
2021/12/21 10:47:37;;;;;;;9.50;5.90;;;11.10;44.30;;;;;;5094157;28;20448;-54
2021/12/21 10:50:05;;;;;;;6.77;5.90;;;11.20;43.30;;;;;;5094360;28;20514;-56
2021/12/21 10:52:31;;;;;;;11.03;5.10;;;11.40;42.50;;;;;;5094640;28;20417;-55
2021/12/21 10:54:57;;;;;;;6.40;4.03;;;11.70;41.50;;;;;;5094017;28;20448;-55
2021/12/21 10:57:34;;;;;;;7.57;4.10;;;11.90;40.90;;;;;;5093765;28;20429;-55
2021/12/21 11:00:04;;;;;;;4.80;4.30;;;11.90;40.30;;;;;;5093942;28;20221;-55
2021/12/21 11:02:33;;;;;;;5.50;4.50;;;12.00;40.20;;;;;;5094360;28;20429;-53
2021/12/21 11:05:01;;;;;;;6.00;5.07;;;12.00;39.70;;;;;;5093601;28;20569;-54
2021/12/21 11:07:38;;;;;;;5.70;4.70;;;12.20;39.80;;;;;;5094099;28;20443;-55
2021/12/21 11:10:14;;;;;;;8.30;5.07;;;12.00;40.10;;;;;;5091965;28;20983;-55
2021/12/21 11:12:51;;;;;;;8.30;4.53;;;12.00;39.20;;;;;;5094401;28;20436;-55
2021/12/21 11:15:20;;;;;;;6.10;4.67;;;11.60;39.70;;;;;;5092385;28;20796;-55
2021/12/21 11:17:46;;;;;;;8.37;5.17;;;11.50;41.10;;;;;;5087472;28;20540;-55
2021/12/21 11:20:14;;;;;;;6.23;5.17;;;11.80;41.30;;;;;;5092282;28;20515;-55
2021/12/21 11:22:45;;;;;;;6.40;5.10;;;12.00;40.70;;;;;;5094648;28;20474;-55
2021/12/21 11:25:12;;;;;;;8.20;4.60;;;12.10;40.70;;;;;;5093712;28;20488;-57
2021/12/21 11:27:41;;;;;;;7.70;4.97;;;12.10;40.80;;;;;;5093579;28;20433;-55
2021/12/21 11:30:13;;;;;;;5.17;4.07;;;12.10;40.80;;;;;;5080290;28;20479;-54
2021/12/21 11:32:43;;;;;;;4.87;3.10;;;11.90;40.30;;;;;;5094316;28;20510;-54
2021/12/21 11:37:38;;;;;;;5.30;3.20;;;10.80;40.50;;;;;;5093608;28;20431;-55
2021/12/21 11:40:06;;;;;;;4.60;2.80;;;10.90;41.00;;;;;;5093219;28;20413;-54
2021/12/21 11:42:42;;;;;;;3.60;2.37;;;10.70;40.40;;;;;;5093041;28;20516;-52
2021/12/21 11:45:21;;;;;;;6.47;3.37;;;10.20;41.50;;;;;;5093046;28;20833;-54
2021/12/21 11:47:58;;;;;;;5.37;3.10;;;10.30;42.00;;;;;;5093150;28;20448;-55
2021/12/21 11:50:24;;;;;;;3.77;3.10;;;10.30;42.00;;;;;;5092864;28;20429;-53
2021/12/21 11:52:51;;;;;;;4.20;3.07;;;9.90;42.80;;;;;;5093607;28;20469;-54
2021/12/21 11:55:19;;;;;;;3.60;2.93;;;9.80;43.10;;;;;;5093125;28;20191;-54
2021/12/21 11:57:53;;;;;;;3.03;2.47;;;9.90;43.30;;;;;;5091773;28;20789;-52
2021/12/21 12:00:22;;;;;;;3.70;2.37;;;10.10;42.00;;;;;;5092656;28;20445;-52
2021/12/21 12:02:50;;;;;;;5.57;3.53;;;9.90;42.80;;;;;;5091805;28;20435;-54
2021/12/21 12:05:25;;;;;;;4.93;3.13;;;10.10;41.90;;;;;;5092617;28;20898;-52
2021/12/21 12:08:01;;;;;;;3.63;2.53;;;9.90;42.90;;;;;;5092839;28;20443;-57
2021/12/21 12:10:27;;;;;;;3.87;2.47;;;10.00;42.40;;;;;;5092610;28;20445;-56
2021/12/21 12:12:52;;;;;;;5.20;2.80;;;10.00;42.70;;;;;;5093308;28;20429;-54
2021/12/21 12:15:18;;;;;;;7.47;2.80;;;10.10;41.90;;;;;;5092048;28;20191;-54
2021/12/21 12:17:50;;;;;;;5.10;3.00;;;10.10;42.30;;;;;;5086235;28;20265;-55
2021/12/21 12:20:17;;;;;;;4.37;2.80;;;10.40;42.00;;;;;;5091479;28;20472;-55
2021/12/21 12:22:45;;;;;;;6.03;3.50;;;10.70;41.00;;;;;;5092930;28;20429;-55
2021/12/21 12:25:23;;;;;;;4.93;3.07;;;10.70;40.70;;;;;;5092378;28;20476;-55
2021/12/21 12:27:51;;;;;;;4.90;3.40;;;10.80;40.90;;;;;;5092520;28;20421;-55
2021/12/21 12:30:20;;;;;;;3.43;3.00;;;10.70;40.70;;;;;;5090374;28;20514;-53
2021/12/21 12:32:59;;;;;;;3.67;2.87;;;10.60;41.10;;;;;;5092694;28;20470;-55
2021/12/21 12:35:32;;;;;;;4.17;3.37;;;10.50;41.00;;;;;;5092281;28;20440;-56
2021/12/21 12:38:12;;;;;;;5.03;2.70;;;10.70;40.70;;;;;;5092647;28;20453;-55
2021/12/21 12:40:46;;;;;;;8.13;2.80;;;11.00;40.40;;;;;;5091851;28;20482;-54
2021/12/21 12:43:17;;;;;;;6.40;2.70;;;11.10;40.10;;;;;;5092768;28;20433;-55
2021/12/21 12:45:50;;;;;;;3.77;3.03;;;11.20;39.80;;;;;;5091570;28;20444;-55
2021/12/21 12:48:29;;;;;;;5.07;3.20;;;11.40;39.60;;;;;;5092500;28;20486;-54
2021/12/21 12:50:57;;;;;;;5.33;3.00;;;11.50;39.20;;;;;;5091763;28;21064;-55
2021/12/21 12:53:37;;;;;;;3.97;3.10;;;11.40;39.50;;;;;;5091502;28;20440;-55
2021/12/21 12:56:04;;;;;;;3.43;3.00;;;11.60;39.60;;;;;;5089944;28;20433;-53
2021/12/21 12:58:30;;;;;;;3.87;3.47;;;11.80;39.20;;;;;;5092563;28;20472;-55
2021/12/21 13:01:02;;;;;;;5.17;3.03;;;11.90;38.90;;;;;;5091570;28;20475;-56
2021/12/21 13:03:34;;;;;;;3.90;2.70;;;11.90;39.00;;;;;;5092055;28;20995;-55
2021/12/21 13:06:01;;;;;;;4.07;3.20;;;12.00;39.10;;;;;;5091399;28;20803;-53
2021/12/21 13:08:28;;;;;;;6.13;4.07;;;11.80;38.50;;;;;;5091836;28;20444;-56
2021/12/21 13:10:57;;;;;;;4.80;2.60;;;11.80;38.90;;;;;;5091466;28;20465;-55
2021/12/21 13:13:38;;;;;;;3.90;2.90;;;11.90;39.00;;;;;;5092010;28;20430;-55
2021/12/21 13:16:07;;;;;;;4.80;3.27;;;12.00;38.90;;;;;;5091187;28;20761;-55
2021/12/21 13:18:42;;;;;;;3.87;2.97;;;12.10;38.50;;;;;;5083832;28;20461;-52
2021/12/21 13:21:22;;;;;;;4.20;2.87;;;12.20;38.30;;;;;;5091821;28;20497;-55
2021/12/21 13:23:51;;;;;;;4.97;3.07;;;12.40;38.30;;;;;;5090543;28;21023;-55
2021/12/21 13:26:18;;;;;;;4.80;2.60;;;12.20;38.20;;;;;;5090751;28;20881;-54
2021/12/21 13:28:53;;;;;;;4.37;2.80;;;12.00;38.20;;;;;;5091651;28;20433;-54
2021/12/21 13:31:22;;;;;;;3.80;3.47;;;11.80;38.50;;;;;;5091060;28;20437;-55
2021/12/21 13:33:53;;;;;;;5.07;3.47;;;12.10;38.50;;;;;;5091663;28;20985;-55
2021/12/21 13:36:33;;;;;;;6.53;3.03;;;12.30;38.40;;;;;;5090240;28;20433;-55
2021/12/21 13:39:01;;;;;;;3.37;3.10;;;12.30;37.90;;;;;;5091561;28;20417;-55
2021/12/21 13:41:26;;;;;;;2.37;2.17;;;12.20;38.10;;;;;;5091006;28;20478;-53
2021/12/21 13:43:59;;;;;;;5.63;3.37;;;12.30;38.00;;;;;;5091460;28;21030;-53
2021/12/21 13:46:33;;;;;;;5.23;2.83;;;12.40;38.00;;;;;;5090423;28;20685;-56
2021/12/21 13:48:59;;;;;;;3.53;2.40;;;12.50;37.80;;;;;;5090016;28;20432;-53
2021/12/21 13:51:25;;;;;;;5.13;3.57;;;12.30;37.40;;;;;;5090961;28;20501;-55
2021/12/21 13:53:58;;;;;;;4.40;3.33;;;12.20;37.90;;;;;;5091301;28;20470;-54
2021/12/21 13:56:29;;;;;;;4.83;3.53;;;12.30;38.20;;;;;;5090084;28;20516;-52
2021/12/21 13:58:56;;;;;;;5.90;3.70;;;12.40;38.00;;;;;;5091264;28;20480;-53
2021/12/21 14:01:24;;;;;;;4.60;3.60;;;12.50;37.90;;;;;;5090700;28;20504;-53
2021/12/21 14:03:58;;;;;;;6.33;2.73;;;12.40;38.00;;;;;;5091115;28;20533;-54
2021/12/21 14:06:26;;;;;;;5.93;2.60;;;12.30;37.90;;;;;;5089933;28;20908;-55
2021/12/21 14:08:54;;;;;;;3.30;2.80;;;12.30;38.00;;;;;;5091086;28;20437;-53